Time;durP1;ratioP1;P1;durP2;ratioP2;P2;SDS_P1;SDS_P2;PMS_P1;PMS_P2;Temp;Humidity;BMP_temperature;BMP_pressure;BME280_temperature;BME280_humidity;BME280_pressure;Samples;Min_cycle;Max_cycle;Signal;HPM_P1;HPM_P2
2021/07/24 00:00:35;;;;;;;6.60;2.75;;;19.50;99.90;;;19.14;88.12;100449.81;4170517;28;20433;-75
2021/07/24 00:02:36;;;;;;;8.52;3.28;;;19.50;99.90;;;19.17;88.67;100456.59;4171319;28;20064;-75
2021/07/24 00:04:37;;;;;;;7.05;2.85;;;19.50;99.90;;;19.18;87.85;100440.31;4171676;28;20022;-75
2021/07/24 00:06:38;;;;;;;9.23;3.03;;;19.50;99.90;;;19.12;88.66;100441.19;4170589;28;20018;-75
2021/07/24 00:08:39;;;;;;;8.93;3.13;;;19.50;99.90;;;19.25;88.00;100441.06;4171481;28;20033;-75
2021/07/24 00:10:40;;;;;;;8.93;3.03;;;19.50;99.90;;;19.30;87.55;100441.22;4171455;28;20060;-75
2021/07/24 00:12:41;;;;;;;14.10;3.72;;;19.60;99.90;;;19.29;87.62;100442.25;4170463;28;20128;-75
2021/07/24 00:14:42;;;;;;;10.18;3.80;;;19.60;99.90;;;19.30;87.31;100445.75;4171526;28;20022;-75
2021/07/24 00:16:42;;;;;;;9.02;2.83;;;19.50;99.90;;;19.41;86.88;100444.25;4171122;28;20040;-76
2021/07/24 00:18:43;;;;;;;8.35;3.50;;;19.60;99.90;;;19.37;87.06;100435.81;4170090;28;20029;-75
2021/07/24 00:20:44;;;;;;;9.75;3.15;;;19.60;99.90;;;19.31;86.40;100442.06;4170174;28;20486;-75
2021/07/24 00:22:45;;;;;;;9.45;3.75;;;19.60;99.90;;;19.35;86.68;100436.03;4186728;28;20056;-75
2021/07/24 00:24:46;;;;;;;8.77;3.50;;;19.60;99.90;;;19.35;86.59;100436.03;4170297;28;20476;-75
2021/07/24 00:26:48;;;;;;;11.45;3.60;;;19.60;99.90;;;19.31;87.58;100426.81;4186474;28;20021;-75
2021/07/24 00:28:49;;;;;;;9.95;4.05;;;19.60;99.90;;;19.25;89.74;100430.38;4186831;28;20104;-75
2021/07/24 00:30:50;;;;;;;8.07;3.80;;;19.70;99.90;;;19.26;90.41;100429.31;4171304;28;20025;-75
2021/07/24 00:32:51;;;;;;;13.90;5.65;;;19.60;99.90;;;19.27;90.63;100424.78;4169660;28;20032;-75
2021/07/24 00:34:52;;;;;;;8.18;4.15;;;19.60;99.90;;;19.26;90.45;100428.53;4171068;28;20075;-75
2021/07/24 00:36:55;;;;;;;11.15;4.75;;;19.60;99.90;;;19.24;90.23;100425.22;4169968;28;20033;-75
2021/07/24 00:38:56;;;;;;;7.57;3.90;;;19.60;99.90;;;19.27;89.71;100422.13;4154094;28;20061;-75
2021/07/24 00:41:03;;;;;;;10.90;4.30;;;19.50;99.90;;;19.16;90.04;100412.97;4171131;28;20265;-75
2021/07/24 00:43:07;;;;;;;9.13;4.28;;;19.50;99.90;;;19.18;89.44;100412.75;4170730;28;20053;-75
2021/07/24 00:45:11;;;;;;;9.05;5.00;;;19.50;99.90;;;19.23;90.66;100418.28;4169909;28;20061;-75
2021/07/24 00:47:17;;;;;;;11.52;4.95;;;19.50;99.90;;;19.27;89.13;100416.78;4169578;28;20052;-76
2021/07/24 00:49:21;;;;;;;10.73;4.03;;;19.50;99.90;;;19.18;89.94;100413.56;4169716;28;20030;-74
2021/07/24 00:51:38;;;;;;;12.65;5.15;;;19.50;99.90;;;19.22;88.98;100416.63;4171071;28;20033;-75
2021/07/24 00:53:39;;;;;;;11.63;4.68;;;19.50;99.90;;;19.17;89.74;100416.47;4169676;28;20088;-75
2021/07/24 00:55:40;;;;;;;10.80;4.47;;;19.50;99.90;;;19.04;89.82;100412.06;4170911;28;20029;-75
2021/07/24 00:57:42;;;;;;;8.75;4.32;;;19.40;99.90;;;19.03;90.09;100404.25;4169763;28;20032;-75
2021/07/24 00:59:43;;;;;;;10.60;4.90;;;19.40;99.90;;;19.05;90.34;100407.53;4186367;28;20472;-75
2021/07/24 01:01:46;;;;;;;14.75;5.32;;;19.40;99.90;;;19.05;90.43;100399.50;4169930;28;20017;-75
2021/07/24 01:03:47;;;;;;;10.77;5.20;;;19.30;99.90;;;19.09;90.42;100409.53;4170817;28;20125;-75
2021/07/24 01:05:55;;;;;;;11.43;4.20;;;19.30;99.90;;;18.96;90.50;100409.66;4170686;28;20026;-75
2021/07/24 01:07:57;;;;;;;12.15;4.50;;;19.30;99.90;;;18.90;90.67;100404.38;4170875;28;20079;-75
2021/07/24 01:09:58;;;;;;;8.50;4.72;;;19.20;99.90;;;18.95;90.71;100401.84;4170759;28;20029;-75
2021/07/24 01:12:02;;;;;;;12.38;4.93;;;19.20;99.90;;;18.90;90.49;100391.81;4170728;28;20029;-75
2021/07/24 01:14:04;;;;;;;11.60;5.00;;;19.20;99.90;;;18.96;90.48;100398.16;4169418;28;20065;-75
2021/07/24 01:16:05;;;;;;;12.95;5.00;;;19.20;99.90;;;18.86;90.75;100390.63;4170831;28;20068;-75
2021/07/24 01:18:06;;;;;;;11.48;4.85;;;19.10;99.90;;;18.91;90.52;100374.72;4170563;28;20034;-75
2021/07/24 01:20:12;;;;;;;12.05;5.28;;;19.10;99.90;;;18.77;91.43;100379.38;4169270;28;20025;-75
2021/07/24 01:22:13;;;;;;;11.52;5.18;;;19.00;99.90;;;18.81;90.75;100384.28;4170376;28;20029;-75
2021/07/24 01:24:13;;;;;;;9.18;4.00;;;18.90;99.90;;;18.77;91.69;100381.22;4170677;28;20025;-75
2021/07/24 01:26:29;;;;;;;9.77;5.10;;;18.90;99.90;;;18.79;91.73;100385.31;4170665;28;20022;-75
2021/07/24 01:28:35;;;;;;;11.57;4.97;;;18.90;99.90;;;18.76;91.67;100380.41;4169284;28;20116;-75
2021/07/24 01:30:36;;;;;;;14.05;5.75;;;18.90;99.90;;;18.72;92.41;100389.91;4153435;28;20030;-75
2021/07/24 01:32:38;;;;;;;10.73;4.32;;;18.90;99.90;;;18.73;91.68;100385.38;4170343;28;20029;-75
2021/07/24 01:34:39;;;;;;;11.75;4.50;;;18.90;99.90;;;18.72;91.77;100376.56;4170355;28;20108;-75
2021/07/24 01:36:40;;;;;;;12.20;4.45;;;19.00;99.90;;;18.71;91.30;100376.75;4170167;28;20117;-75
2021/07/24 01:38:41;;;;;;;10.30;4.50;;;19.00;99.90;;;18.66;92.06;100372.09;4169229;28;20075;-75
2021/07/24 01:40:42;;;;;;;12.35;5.00;;;18.90;99.90;;;18.66;92.41;100382.78;4185643;28;20033;-75
2021/07/24 01:42:43;;;;;;;10.15;4.68;;;18.90;99.90;;;18.75;92.29;100378.78;4169003;28;20049;-75
2021/07/24 01:44:44;;;;;;;10.75;4.70;;;19.00;99.90;;;18.69;92.09;100373.50;4170107;28;20024;-75
2021/07/24 01:46:45;;;;;;;8.52;4.60;;;19.00;99.90;;;18.68;92.66;100382.53;4170172;28;20381;-75
2021/07/24 01:48:53;;;;;;;10.77;4.97;;;18.90;99.90;;;18.71;92.42;100385.59;4169006;28;20033;-75
2021/07/24 01:53:14;;;;;;;11.93;5.35;;;18.80;99.90;;;18.65;91.89;100391.81;4169099;28;20044;-75
2021/07/24 01:55:31;;;;;;;11.80;5.22;;;18.70;99.90;;;18.47;92.04;100383.69;4168999;28;20022;-75
2021/07/24 01:57:35;;;;;;;9.23;5.60;;;18.70;99.90;;;18.48;92.47;100381.84;4184560;28;20036;-75
2021/07/24 01:59:45;;;;;;;13.02;5.40;;;18.60;99.90;;;18.51;92.28;100382.25;4168677;28;20036;-75
2021/07/24 02:01:46;;;;;;;13.27;5.43;;;18.60;99.90;;;18.44;92.67;100385.97;4169790;28;20029;-75
2021/07/24 02:04:08;;;;;;;10.32;4.45;;;18.60;99.90;;;18.45;92.27;100385.75;4168634;28;20018;-75
2021/07/24 02:06:14;;;;;;;9.95;5.13;;;18.50;99.90;;;18.68;91.01;100394.06;4170001;28;20493;-75
2021/07/24 02:08:25;;;;;;;13.10;5.15;;;18.60;99.90;;;18.54;91.56;100379.16;4152078;28;20160;-75
2021/07/24 02:10:26;;;;;;;11.73;5.05;;;18.60;99.90;;;18.55;91.98;100386.13;4152124;28;20033;-75
2021/07/24 02:12:27;;;;;;;11.00;4.72;;;18.60;99.90;;;18.52;91.77;100378.53;4184117;28;20029;-75
2021/07/24 02:14:28;;;;;;;10.57;4.45;;;18.60;99.90;;;18.63;91.33;100372.53;4168682;28;20085;-75
2021/07/24 02:16:29;;;;;;;10.77;4.80;;;18.60;99.90;;;18.56;92.00;100382.44;4169800;28;20026;-75
2021/07/24 02:18:30;;;;;;;13.85;5.40;;;18.60;99.90;;;18.74;91.80;100377.16;4168248;28;20060;-75
2021/07/24 02:20:32;;;;;;;10.48;4.80;;;18.70;99.90;;;18.60;92.33;100364.94;4185006;28;20017;-75
2021/07/24 02:22:33;;;;;;;11.15;5.57;;;18.70;99.90;;;18.69;92.32;100379.66;4168507;28;20029;-75
2021/07/24 02:24:34;;;;;;;9.55;5.00;;;18.80;99.90;;;18.77;91.42;100382.06;4169539;28;20101;-75
2021/07/24 02:26:43;;;;;;;10.68;5.22;;;18.80;99.90;;;18.66;91.99;100392.63;4168470;28;20083;-75
2021/07/24 02:28:43;;;;;;;10.60;5.22;;;18.90;99.90;;;18.51;92.95;100378.75;4167885;28;20041;-75
2021/07/24 02:30:45;;;;;;;11.00;5.72;;;18.80;99.90;;;18.51;93.43;100384.94;4159630;28;20079;-75
2021/07/24 02:32:46;;;;;;;10.48;4.75;;;18.70;99.90;;;18.57;93.36;100389.41;4167997;28;20022;-75
2021/07/24 02:34:47;;;;;;;13.82;5.25;;;18.70;99.90;;;18.40;92.88;100380.22;4184755;28;20378;-75
2021/07/24 02:36:48;;;;;;;14.75;5.25;;;18.60;99.90;;;18.53;92.98;100380.19;4169219;28;20088;-75
2021/07/24 02:38:48;;;;;;;11.55;5.05;;;18.60;99.90;;;18.52;93.23;100388.41;4168457;28;20413;-75
2021/07/24 02:40:50;;;;;;;10.15;5.03;;;18.60;99.90;;;18.60;93.56;100405.00;4169378;28;20021;-75
2021/07/24 02:42:51;;;;;;;10.80;4.70;;;18.70;99.90;;;18.70;92.55;100396.50;4169198;28;20049;-75
2021/07/24 02:44:52;;;;;;;11.38;4.65;;;18.70;99.90;;;18.71;92.17;100395.47;4168204;28;20021;-75
2021/07/24 02:46:53;;;;;;;12.18;4.88;;;18.80;99.90;;;18.72;92.10;100389.09;4167688;28;20028;-75
2021/07/24 02:48:54;;;;;;;10.13;4.43;;;18.80;99.90;;;18.65;92.17;100397.16;4168189;28;20111;-75
2021/07/24 02:50:55;;;;;;;11.68;5.07;;;18.70;99.90;;;18.72;91.78;100400.59;4168167;28;20030;-75
2021/07/24 02:52:55;;;;;;;8.02;4.13;;;18.70;99.90;;;18.71;91.35;100396.28;4168355;28;20025;-75
2021/07/24 02:54:56;;;;;;;10.73;4.38;;;18.70;99.90;;;18.56;91.41;100387.75;4168006;28;20024;-75
2021/07/24 02:56:57;;;;;;;11.63;5.05;;;18.70;99.90;;;18.57;91.89;100386.75;4169122;28;20029;-75
2021/07/24 02:58:58;;;;;;;9.27;4.63;;;18.70;99.90;;;18.53;92.03;100387.38;4169047;28;20025;-75
2021/07/24 03:01:05;;;;;;;9.88;4.72;;;18.60;99.90;;;18.48;92.15;100390.69;4168966;28;20033;-75
2021/07/24 03:03:06;;;;;;;8.73;4.43;;;18.60;99.90;;;18.61;91.02;100389.78;4167715;28;20017;-75
2021/07/24 03:05:07;;;;;;;11.65;4.97;;;18.60;99.90;;;18.29;91.36;100375.59;4168986;28;20030;-75
2021/07/24 03:07:08;;;;;;;9.85;4.20;;;18.60;99.90;;;18.22;92.51;100382.81;4169102;28;20508;-75
2021/07/24 03:09:11;;;;;;;9.93;4.63;;;18.50;99.90;;;18.31;92.24;100378.84;4168791;28;20104;-75
2021/07/24 03:11:12;;;;;;;8.18;4.70;;;18.40;99.90;;;18.25;92.62;100374.38;4169067;28;20068;-75
2021/07/24 03:13:12;;;;;;;9.57;4.28;;;18.40;99.90;;;18.35;91.95;100382.75;4168907;28;20025;-75
2021/07/24 03:15:13;;;;;;;7.35;3.90;;;18.40;99.90;;;18.25;92.65;100382.38;4167736;28;20025;-75
2021/07/24 03:17:14;;;;;;;7.45;4.43;;;18.40;99.90;;;18.19;93.35;100385.91;4168618;28;20366;-75
2021/07/24 03:19:15;;;;;;;7.10;4.03;;;18.30;99.90;;;18.19;93.22;100370.72;4168703;28;20072;-75
2021/07/24 03:21:16;;;;;;;11.65;5.10;;;18.30;99.90;;;18.25;93.01;100374.38;4167685;28;20022;-75
2021/07/24 03:23:17;;;;;;;6.97;4.45;;;18.30;99.90;;;18.22;92.72;100369.44;4168532;28;20036;-75
2021/07/24 03:25:20;;;;;;;8.73;4.18;;;18.30;99.90;;;18.18;93.13;100368.25;4167126;28;20428;-75
2021/07/24 03:27:21;;;;;;;6.73;3.97;;;18.20;99.90;;;18.10;93.08;100357.81;4158008;28;20412;-75
2021/07/24 03:29:23;;;;;;;8.98;3.88;;;18.20;99.90;;;18.23;92.68;100365.75;4168670;28;20287;-75
2021/07/24 03:31:24;;;;;;;9.93;4.63;;;18.30;99.90;;;18.15;93.19;100358.00;4168587;28;20373;-75
2021/07/24 03:33:24;;;;;;;10.85;4.97;;;18.30;99.90;;;18.38;92.28;100366.28;4168390;28;20032;-75
2021/07/24 03:35:25;;;;;;;12.32;4.88;;;18.30;99.90;;;18.43;91.81;100371.78;4168587;28;20029;-75
2021/07/24 03:37:28;;;;;;;9.15;4.97;;;18.40;99.90;;;18.46;92.56;100374.03;4168502;28;20072;-75
2021/07/24 03:39:29;;;;;;;9.75;4.68;;;18.40;99.90;;;18.39;93.79;100375.94;4167511;28;20025;-75
2021/07/24 03:41:35;;;;;;;9.68;4.28;;;18.50;99.90;;;18.29;95.48;100370.25;4183929;28;20035;-75
2021/07/24 03:43:35;;;;;;;11.77;4.60;;;18.50;99.90;;;18.34;94.98;100373.06;4167235;28;20057;-75
2021/07/24 03:45:36;;;;;;;7.65;4.10;;;18.50;99.90;;;18.37;95.43;100364.63;4167497;28;20033;-75
2021/07/24 03:47:37;;;;;;;9.10;4.65;;;18.50;99.90;;;18.28;96.19;100365.13;4168157;28;20032;-75
2021/07/24 03:49:38;;;;;;;11.77;4.93;;;18.50;99.90;;;18.21;97.14;100365.16;4168288;28;20030;-75
2021/07/24 03:51:39;;;;;;;9.98;4.35;;;18.40;99.90;;;18.18;96.66;100361.09;4167471;28;20029;-75
2021/07/24 03:53:41;;;;;;;8.95;4.43;;;18.40;99.90;;;18.23;97.33;100360.41;4167139;28;20033;-75
2021/07/24 03:55:42;;;;;;;8.90;4.85;;;18.40;99.90;;;18.12;97.14;100348.59;4167162;28;20119;-75
2021/07/24 03:57:43;;;;;;;10.43;3.97;;;18.30;99.90;;;18.15;98.20;100352.69;4167022;28;20038;-75
2021/07/24 03:59:44;;;;;;;13.00;4.68;;;18.40;99.90;;;18.23;97.39;100355.09;4168379;28;20489;-75
2021/07/24 04:01:46;;;;;;;6.78;4.10;;;18.30;99.90;;;18.21;96.65;100349.97;4167828;28;20038;-75
2021/07/24 04:03:47;;;;;;;12.15;4.78;;;18.40;99.90;;;18.19;97.52;100343.19;4150624;28;20030;-75
2021/07/24 04:05:48;;;;;;;6.85;4.20;;;18.30;99.90;;;18.11;98.41;100351.47;4166925;28;20064;-75
2021/07/24 04:07:49;;;;;;;8.13;4.65;;;18.30;99.90;;;18.19;97.15;100361.88;4168220;28;20489;-75
2021/07/24 04:09:53;;;;;;;9.65;4.30;;;18.30;99.90;;;18.16;96.66;100357.78;4168456;28;20030;-75
2021/07/24 04:11:54;;;;;;;6.40;3.67;;;18.30;99.90;;;17.95;97.95;100357.31;4168108;28;20159;-75
2021/07/24 04:13:57;;;;;;;7.93;4.10;;;18.20;99.90;;;17.92;98.96;100360.41;4167999;28;20112;-74
2021/07/24 04:15:58;;;;;;;7.35;3.85;;;18.10;99.90;;;17.88;99.62;100360.00;4168304;28;20037;-74
2021/07/24 04:17:59;;;;;;;8.27;3.78;;;18.10;99.90;;;17.96;99.41;100367.75;4166511;28;20056;-75
2021/07/24 04:20:02;;;;;;;10.02;3.80;;;18.00;99.90;;;17.98;98.57;100360.34;4166953;28;20467;-75
2021/07/24 04:22:03;;;;;;;9.90;3.90;;;18.00;99.90;;;17.97;98.85;100357.91;4168036;28;20496;-75
2021/07/24 04:24:04;;;;;;;6.85;3.38;;;18.00;99.90;;;18.02;98.56;100358.91;4166945;28;20052;-75
2021/07/24 04:26:05;;;;;;;7.78;4.43;;;18.00;99.90;;;18.00;98.46;100355.63;4168140;28;20136;-75
2021/07/24 04:28:06;;;;;;;8.77;3.72;;;18.00;99.90;;;17.86;99.31;100354.03;4167895;28;20478;-75
2021/07/24 04:30:07;;;;;;;8.75;4.35;;;18.00;99.90;;;17.88;99.37;100362.69;4199947;28;20029;-75
2021/07/24 04:32:08;;;;;;;8.93;3.50;;;18.00;99.90;;;17.83;100.00;100353.69;4166651;28;20091;-75
2021/07/24 04:34:09;;;;;;;6.68;3.42;;;18.00;99.90;;;17.88;99.99;100354.66;4166944;28;20033;-74
2021/07/24 04:36:13;;;;;;;6.93;3.70;;;18.00;99.90;;;17.91;98.96;100361.44;4162206;28;20099;-74
2021/07/24 04:38:16;;;;;;;10.48;3.50;;;18.00;99.90;;;17.89;99.44;100355.50;4169919;28;20041;-74
2021/07/24 04:40:17;;;;;;;9.63;3.67;;;17.90;99.90;;;17.85;99.26;100363.09;4171165;28;20052;-74
2021/07/24 04:42:17;;;;;;;6.95;2.88;;;18.00;99.90;;;17.87;99.83;100366.38;4170928;28;20053;-74
2021/07/24 04:44:18;;;;;;;10.35;3.33;;;17.90;99.90;;;17.91;99.00;100364.91;4170088;28;20026;-75
2021/07/24 04:46:19;;;;;;;6.65;2.85;;;18.00;99.90;;;17.84;99.49;100361.44;4170982;28;20017;-74
2021/07/24 04:48:20;;;;;;;9.60;3.70;;;17.90;99.90;;;17.94;99.53;100361.00;4169602;28;20040;-74
2021/07/24 04:50:21;;;;;;;9.48;3.70;;;18.00;99.90;;;18.04;99.13;100367.50;4171030;28;20060;-74
2021/07/24 04:52:23;;;;;;;8.07;3.55;;;18.00;99.90;;;18.00;99.39;100373.50;4170967;28;20041;-74
2021/07/24 04:54:24;;;;;;;6.80;3.10;;;18.00;99.90;;;17.97;99.51;100363.25;4169673;28;20041;-74
2021/07/24 04:56:26;;;;;;;10.60;2.90;;;18.10;99.90;;;18.01;99.70;100373.28;4186339;28;20033;-75
2021/07/24 04:58:27;;;;;;;8.27;3.88;;;18.10;99.90;;;18.08;99.15;100367.91;4170910;28;20025;-75
2021/07/24 05:00:28;;;;;;;8.23;3.35;;;18.10;99.90;;;18.06;99.15;100359.31;4169423;28;20076;-74
2021/07/24 05:02:30;;;;;;;10.43;2.95;;;18.20;99.90;;;18.18;98.89;100352.25;4185633;28;20025;-75
2021/07/24 05:04:32;;;;;;;12.95;3.25;;;18.30;99.90;;;18.28;99.03;100360.59;4169712;28;20022;-75
2021/07/24 05:06:34;;;;;;;8.02;2.63;;;18.40;99.90;;;18.33;98.43;100365.28;4170837;28;20036;-75
2021/07/24 05:08:37;;;;;;;12.38;4.20;;;18.50;99.90;;;18.39;98.25;100348.41;4170744;28;20033;-75
2021/07/24 05:10:40;;;;;;;13.15;3.67;;;18.60;99.90;;;18.51;98.35;100354.72;4169371;28;20151;-74
2021/07/24 05:12:41;;;;;;;4.88;2.53;;;18.70;99.90;;;18.56;98.38;100353.03;4169413;28;20439;-75
2021/07/24 05:14:42;;;;;;;6.40;2.90;;;18.80;99.90;;;18.51;98.63;100360.06;4170811;28;20481;-75
2021/07/24 05:16:43;;;;;;;7.15;2.63;;;18.80;99.90;;;18.44;99.63;100348.56;4170230;28;20033;-75
2021/07/24 05:18:44;;;;;;;8.50;2.97;;;18.80;99.90;;;18.53;99.49;100361.47;4169233;28;20036;-75
2021/07/24 05:20:45;;;;;;;9.52;2.45;;;18.80;99.90;;;18.54;99.85;100354.28;4170632;28;20024;-75
2021/07/24 05:22:46;;;;;;;7.85;3.33;;;18.80;99.90;;;18.48;100.00;100344.44;4169295;28;20451;-74
2021/07/24 05:24:47;;;;;;;6.63;2.30;;;18.80;99.90;;;18.42;100.00;100334.63;4170368;28;20048;-75
2021/07/24 05:26:48;;;;;;;6.75;2.35;;;18.70;99.90;;;18.42;100.00;100337.31;4170296;28;20393;-74
2021/07/24 05:28:49;;;;;;;9.60;3.00;;;18.70;99.90;;;18.38;100.00;100339.56;4170437;28;20022;-75
2021/07/24 05:30:50;;;;;;;5.13;2.05;;;18.70;99.90;;;18.37;100.00;100339.81;4170028;28;20068;-74
2021/07/24 05:32:51;;;;;;;4.82;2.40;;;18.70;99.90;;;18.31;100.00;100346.00;4168821;28;20037;-74
2021/07/24 05:34:52;;;;;;;11.57;3.10;;;18.70;99.90;;;18.43;100.00;100354.97;4170180;28;20029;-75
2021/07/24 05:36:53;;;;;;;7.45;2.53;;;18.70;99.90;;;18.43;100.00;100345.06;4170307;28;20021;-75
2021/07/24 05:38:53;;;;;;;5.97;2.38;;;18.70;99.90;;;18.38;100.00;100347.59;4170309;28;20037;-75
2021/07/24 05:40:58;;;;;;;7.75;2.90;;;18.80;99.90;;;18.50;100.00;100345.88;4168952;28;20026;-75
2021/07/24 05:43:02;;;;;;;8.35;2.40;;;18.80;99.90;;;18.42;100.00;100347.97;4182716;28;20045;-75
2021/07/24 05:45:04;;;;;;;5.82;2.03;;;18.80;99.90;;;18.46;100.00;100355.31;4170377;28;20036;-75
2021/07/24 05:47:05;;;;;;;8.65;2.22;;;18.80;99.90;;;18.56;99.92;100350.38;4169401;28;20022;-75
2021/07/24 05:49:06;;;;;;;5.13;2.25;;;18.90;99.90;;;18.59;100.00;100349.94;4170182;28;20478;-75
2021/07/24 05:51:07;;;;;;;5.78;2.47;;;19.00;99.90;;;18.67;99.99;100360.34;4169849;28;20033;-75
2021/07/24 05:53:08;;;;;;;6.22;2.10;;;19.10;99.90;;;18.75;99.86;100365.44;4169104;28;20037;-75
2021/07/24 05:55:09;;;;;;;7.10;2.25;;;19.10;99.90;;;18.62;98.65;100360.19;4185270;28;20029;-75
2021/07/24 05:57:10;;;;;;;7.13;2.30;;;19.20;99.90;;;18.65;99.30;100354.41;4168526;28;20064;-75
2021/07/24 05:59:11;;;;;;;5.03;2.33;;;19.20;99.90;;;18.71;98.64;100360.72;4169733;28;20025;-74
2021/07/24 06:01:13;;;;;;;4.68;1.83;;;19.30;99.90;;;18.71;98.93;100361.56;4168551;28;20052;-74
2021/07/24 06:03:14;;;;;;;7.70;2.22;;;19.20;99.90;;;18.75;98.73;100365.44;4169651;28;20029;-74
2021/07/24 06:05:15;;;;;;;8.63;3.03;;;19.20;99.90;;;18.74;99.53;100361.13;4169690;28;20131;-75
2021/07/24 06:07:16;;;;;;;7.80;2.45;;;19.20;99.90;;;18.85;98.54;100353.41;4169501;28;20508;-75
2021/07/24 06:09:17;;;;;;;5.68;1.90;;;19.20;99.90;;;18.90;98.83;100358.94;4184877;28;20077;-75
2021/07/24 06:11:18;;;;;;;8.00;2.10;;;19.30;99.90;;;19.01;97.57;100358.19;4152269;28;20517;-75
2021/07/24 06:13:23;;;;;;;10.60;2.40;;;19.30;99.90;;;19.09;96.89;100365.94;4169358;28;20033;-74
2021/07/24 06:15:24;;;;;;;7.10;2.08;;;19.40;99.90;;;18.92;97.08;100363.00;4168358;28;20108;-74
2021/07/24 06:17:25;;;;;;;6.55;2.30;;;19.50;99.90;;;18.96;98.01;100352.72;4169304;28;20030;-74
2021/07/24 06:19:26;;;;;;;7.38;2.58;;;19.60;99.90;;;19.04;98.53;100368.47;4169768;28;20034;-74
2021/07/24 06:21:27;;;;;;;8.20;2.58;;;19.60;99.90;;;19.10;98.41;100359.56;4169623;28;20030;-75
2021/07/24 06:23:27;;;;;;;5.03;2.30;;;19.70;99.90;;;19.17;98.29;100363.81;4169278;28;20033;-74
2021/07/24 06:25:28;;;;;;;5.95;2.20;;;19.70;99.90;;;19.21;98.00;100356.16;4169177;28;20504;-74
2021/07/24 06:27:29;;;;;;;5.55;2.20;;;19.70;99.90;;;19.26;97.38;100367.03;4169487;28;20029;-74
2021/07/24 06:29:30;;;;;;;7.38;3.30;;;19.80;99.90;;;19.23;98.33;100362.13;4169291;28;20045;-74
2021/07/24 06:31:31;;;;;;;8.93;2.88;;;19.80;99.90;;;19.40;98.45;100363.19;4169179;28;20040;-74
2021/07/24 06:33:33;;;;;;;11.15;3.53;;;20.00;99.90;;;19.40;97.69;100367.72;4168281;28;20047;-74
2021/07/24 06:35:34;;;;;;;7.20;2.72;;;20.00;99.90;;;19.44;98.01;100364.38;4169416;28;20030;-75
2021/07/24 06:37:35;;;;;;;10.40;2.80;;;20.10;99.90;;;19.47;97.91;100353.25;4169472;28;20440;-74
2021/07/24 06:39:36;;;;;;;11.48;3.00;;;20.10;99.90;;;19.29;98.08;100363.91;4169422;28;20025;-74
2021/07/24 06:41:41;;;;;;;11.70;2.90;;;20.10;99.90;;;19.28;99.82;100354.22;4169195;28;20404;-74
2021/07/24 06:43:42;;;;;;;15.85;3.22;;;20.00;99.90;;;19.25;99.76;100365.38;4167786;28;20052;-75
2021/07/24 06:45:42;;;;;;;12.40;3.60;;;20.00;99.90;;;19.28;100.00;100365.75;4169162;28;20025;-75
2021/07/24 06:47:43;;;;;;;7.68;3.38;;;20.00;99.90;;;19.34;100.00;100364.88;4167239;28;20068;-74
2021/07/24 06:49:44;;;;;;;8.43;3.05;;;20.00;99.90;;;19.41;100.00;100367.50;4169083;28;20029;-75
2021/07/24 06:51:45;;;;;;;10.35;2.88;;;20.00;99.90;;;19.36;99.92;100361.94;4167627;28;20033;-74
2021/07/24 06:53:46;;;;;;;9.40;3.45;;;20.00;99.90;;;19.31;99.92;100349.25;4169087;28;20028;-74
2021/07/24 06:55:47;;;;;;;9.35;4.03;;;20.00;99.90;;;19.37;99.56;100354.75;4167940;28;20501;-74
2021/07/24 06:57:48;;;;;;;9.90;3.25;;;20.00;99.90;;;19.27;99.91;100361.44;4184117;28;20504;-74
2021/07/24 06:59:49;;;;;;;9.98;3.47;;;19.90;99.90;;;19.18;100.00;100364.59;4150787;28;20022;-74
2021/07/24 07:01:52;;;;;;;7.00;3.17;;;19.90;99.90;;;19.32;100.00;100366.13;4176049;28;20503;-74
2021/07/24 07:03:53;;;;;;;8.27;2.92;;;19.90;99.90;;;19.43;100.00;100367.28;4168923;28;20025;-74
2021/07/24 07:05:53;;;;;;;7.50;2.88;;;20.00;99.90;;;19.41;100.00;100361.34;4168677;28;20539;-74
2021/07/24 07:07:54;;;;;;;7.00;2.70;;;20.00;99.90;;;19.43;99.07;100373.44;4168788;28;20052;-74
2021/07/24 07:09:55;;;;;;;7.65;2.63;;;20.00;99.90;;;19.32;98.24;100360.78;4168959;28;20395;-74
2021/07/24 07:11:57;;;;;;;6.00;2.90;;;19.90;99.90;;;19.44;98.44;100368.91;4168788;28;20033;-74
2021/07/24 07:13:58;;;;;;;9.95;3.30;;;20.00;99.90;;;19.41;96.75;100370.19;4168678;28;20049;-74
2021/07/24 07:16:07;;;;;;;7.00;2.97;;;20.00;99.90;;;19.39;97.48;100364.22;4168806;28;20029;-74
2021/07/24 07:18:08;;;;;;;9.50;2.47;;;20.10;99.90;;;19.45;97.08;100365.19;4168628;28;20026;-74
2021/07/24 07:20:10;;;;;;;6.22;2.60;;;20.20;99.90;;;19.59;97.59;100366.69;4168794;28;20026;-75
2021/07/24 07:22:11;;;;;;;9.95;3.10;;;20.30;99.90;;;19.72;97.45;100367.34;4167151;28;20021;-74
2021/07/24 07:24:13;;;;;;;8.05;2.60;;;20.50;99.90;;;20.03;99.00;100365.50;4167386;28;20025;-74
2021/07/24 07:26:13;;;;;;;7.07;2.67;;;20.70;99.90;;;20.18;97.33;100353.34;4168659;28;20021;-74
2021/07/24 07:28:14;;;;;;;8.18;2.40;;;21.00;99.90;;;20.27;96.65;100359.22;4168546;28;20397;-74
2021/07/24 07:30:15;;;;;;;9.68;3.17;;;21.10;99.90;;;20.30;95.75;100361.44;4168428;28;20036;-74
2021/07/24 07:32:17;;;;;;;11.15;3.30;;;21.30;99.90;;;20.07;96.30;100356.00;4168257;28;20036;-75
2021/07/24 07:34:18;;;;;;;5.22;2.40;;;21.30;99.90;;;20.37;97.69;100349.56;4167113;28;20087;-74
2021/07/24 07:36:19;;;;;;;8.13;2.92;;;21.40;99.90;;;20.51;96.71;100339.50;4168493;28;20481;-73
2021/07/24 07:38:19;;;;;;;11.45;3.22;;;21.60;99.90;;;20.68;97.05;100356.50;4167352;28;20112;-72
2021/07/24 07:40:22;;;;;;;5.50;2.50;;;21.70;99.90;;;20.65;94.42;100335.53;4183784;28;20025;-72
2021/07/24 07:42:23;;;;;;;8.27;2.45;;;21.70;99.90;;;20.56;94.11;100336.91;4168451;28;20041;-73
2021/07/24 07:44:24;;;;;;;7.45;2.75;;;21.70;99.90;;;20.44;95.28;100338.75;4167313;28;20029;-74
2021/07/24 07:46:25;;;;;;;8.40;2.83;;;21.70;99.90;;;20.50;94.98;100343.19;4183610;28;20072;-73
2021/07/24 07:48:26;;;;;;;8.98;2.60;;;21.60;99.90;;;20.31;93.95;100339.78;4167249;28;20030;-74
2021/07/24 07:50:27;;;;;;;10.52;2.88;;;21.40;99.90;;;20.17;94.51;100349.03;4183812;28;20036;-74
2021/07/24 07:52:28;;;;;;;7.20;2.63;;;21.30;99.90;;;20.08;94.46;100333.50;4168460;28;20476;-72
2021/07/24 07:54:30;;;;;;;10.45;2.85;;;21.20;99.90;;;20.21;95.40;100336.00;4168319;28;20052;-73
2021/07/24 07:56:31;;;;;;;10.55;2.67;;;21.10;99.90;;;20.11;95.14;100328.50;4150772;28;20528;-74
2021/07/24 07:58:33;;;;;;;6.68;2.90;;;21.10;99.90;;;20.14;95.42;100322.69;4167046;28;20079;-74
2021/07/24 08:00:35;;;;;;;8.07;2.78;;;21.10;99.90;;;20.40;94.82;100332.22;4168314;28;20049;-74
2021/07/24 08:02:35;;;;;;;6.90;2.80;;;21.20;99.90;;;20.32;95.29;100316.47;4175649;28;20057;-74
2021/07/24 08:04:36;;;;;;;10.10;3.58;;;21.30;99.90;;;20.37;95.50;100316.59;4161898;28;20497;-75
2021/07/24 08:06:37;;;;;;;8.00;2.97;;;21.40;99.90;;;20.24;93.27;100335.53;4168041;28;20055;-74
2021/07/24 08:08:38;;;;;;;8.55;2.67;;;21.40;99.90;;;20.14;94.02;100329.91;4165332;28;20037;-73
2021/07/24 08:10:39;;;;;;;5.43;2.50;;;21.30;99.90;;;20.13;94.66;100342.47;4168083;28;20029;-73
2021/07/24 08:12:40;;;;;;;8.95;2.97;;;21.20;99.90;;;20.23;95.10;100339.25;4169172;28;20112;-73
2021/07/24 08:14:41;;;;;;;8.07;2.72;;;21.20;99.90;;;20.30;94.54;100337.34;4169950;28;20068;-73
2021/07/24 08:16:45;;;;;;;9.07;3.13;;;21.20;99.90;;;20.18;93.32;100333.78;4186214;28;20025;-73
2021/07/24 08:18:45;;;;;;;;;;;21.20;99.90;;;20.03;94.35;100333.38;4170176;28;20033;-73
2021/07/24 08:20:47;;;;;;;6.68;2.63;;;21.10;99.90;;;20.24;94.48;100332.88;4186202;28;19909;-74
2021/07/24 08:22:47;;;;;;;11.05;2.83;;;21.10;99.90;;;20.20;94.68;100327.16;4169608;28;20053;-73
2021/07/24 08:24:48;;;;;;;7.70;2.78;;;21.10;99.90;;;20.08;95.41;100328.16;4165004;28;20366;-74
2021/07/24 08:26:49;;;;;;;12.57;3.08;;;21.20;99.90;;;20.23;95.13;100328.53;4153135;28;20026;-74